createdAt,value
2023-01-25T00:02:17.663Z,6.2
2023-01-25T00:08:03.807Z,6.2
2023-01-25T00:13:38.965Z,6.2
2023-01-25T00:19:15.300Z,6.2
2023-01-25T00:24:51.944Z,6.2
2023-01-25T00:30:27.197Z,6.3
2023-01-25T00:36:02.359Z,6.3
2023-01-25T00:41:37.843Z,6.3
2023-01-25T00:47:34.588Z,6.2
2023-01-25T00:53:07.467Z,6.2
2023-01-25T00:58:43.855Z,6.2
2023-01-25T01:04:19.121Z,6.2
2023-01-25T01:09:56.195Z,6.2
2023-01-25T01:15:31.784Z,6.2
2023-01-25T01:21:09.085Z,6.1
2023-01-25T01:26:45.000Z,6.1
2023-01-25T01:32:20.141Z,6
2023-01-25T01:37:57.666Z,6
2023-01-25T01:43:33.807Z,5.9
2023-01-25T01:49:30.849Z,5.9
2023-01-25T01:55:05.017Z,5.9
2023-01-25T02:00:43.498Z,5.8
2023-01-25T02:06:19.045Z,5.6
2023-01-25T02:11:54.044Z,5.5
2023-01-25T02:17:29.040Z,5.6
2023-01-25T02:23:05.029Z,5.5
2023-01-25T02:28:40.441Z,5.5
2023-01-25T02:34:16.045Z,5.5
2023-01-25T02:39:51.509Z,5.4
2023-01-25T02:45:27.358Z,5.4
2023-01-25T02:51:02.930Z,5.3
2023-01-25T02:56:39.026Z,5.3
2023-01-25T03:02:13.868Z,5.3
2023-01-25T03:07:51.245Z,5.3
2023-01-25T03:13:26.857Z,5.2
2023-01-25T03:19:02.175Z,5.2
2023-01-25T03:24:36.934Z,5.2
2023-01-25T03:30:12.499Z,5.1
2023-01-25T03:35:47.605Z,5
2023-01-25T03:41:23.022Z,5
2023-01-25T03:47:19.755Z,4.8
2023-01-25T03:52:52.301Z,4.7
2023-01-25T03:58:27.573Z,4.7
2023-01-25T04:04:03.044Z,4.6
2023-01-25T04:09:38.482Z,4.6
2023-01-25T04:15:16.714Z,4.7
2023-01-25T04:20:52.509Z,4.7
2023-01-25T04:26:28.956Z,4.7
2023-01-25T04:32:04.589Z,4.7
2023-01-25T04:37:41.761Z,4.7
2023-01-25T04:43:16.895Z,4.8
2023-01-25T04:49:15.157Z,4.8
2023-01-25T04:54:48.016Z,4.8
2023-01-25T05:00:23.015Z,4.8
2023-01-25T05:05:58.683Z,4.8
2023-01-25T05:11:34.147Z,4.7
2023-01-25T05:17:09.538Z,4.7
2023-01-25T05:22:44.487Z,4.7
2023-01-25T05:28:20.594Z,4.8
2023-01-25T05:33:55.808Z,4.8
2023-01-25T05:39:30.838Z,4.7
2023-01-25T05:45:06.306Z,4.7
2023-01-25T05:50:43.631Z,4.7
2023-01-25T05:56:18.811Z,4.7
2023-01-25T06:01:53.940Z,4.7
2023-01-25T06:07:29.187Z,4.7
2023-01-25T06:13:04.039Z,4.8
2023-01-25T06:18:40.001Z,4.9
2023-01-25T06:24:20.244Z,4.9
2023-01-25T06:29:57.492Z,5
2023-01-25T06:35:32.486Z,5
2023-01-25T06:41:10.431Z,5
2023-01-25T06:47:09.805Z,5
2023-01-25T06:52:42.774Z,5
2023-01-25T06:58:18.245Z,5
2023-01-25T07:03:53.137Z,5.1
2023-01-25T07:09:29.465Z,5.1
2023-01-25T07:15:04.227Z,5.1
2023-01-25T07:20:41.464Z,5.1
2023-01-25T07:26:16.932Z,5.1
2023-01-25T07:31:52.239Z,5.1
2023-01-25T07:37:28.753Z,5.1
2023-01-25T07:43:05.174Z,5.2
2023-01-25T07:49:02.351Z,5.3
2023-01-25T07:54:35.575Z,5.3
2023-01-25T08:00:11.939Z,5.3
2023-01-25T08:05:48.221Z,5.4
2023-01-25T08:11:23.626Z,5.4
2023-01-25T08:16:59.239Z,5.3
2023-01-25T08:22:34.262Z,5.4
2023-01-25T08:28:09.578Z,5.4
2023-01-25T08:33:45.346Z,5.4
2023-01-25T08:39:20.244Z,5.5
2023-01-25T08:44:56.598Z,5.6
2023-01-25T08:50:32.404Z,5.6
2023-01-25T08:56:08.043Z,5.7
2023-01-25T09:01:43.680Z,5.8
2023-01-25T09:07:19.337Z,5.8
2023-01-25T09:12:54.879Z,5.9
2023-01-25T09:18:30.677Z,5.9
2023-01-25T09:24:07.677Z,6
2023-01-25T09:29:53.936Z,6
2023-01-25T09:35:54.282Z,6
2023-01-25T09:41:30.281Z,6.1
2023-01-25T09:47:06.208Z,6.1
2023-01-25T09:52:41.401Z,6.2
2023-01-25T09:58:17.193Z,6.2
2023-01-25T10:03:53.458Z,6.3
2023-01-25T10:09:29.125Z,6.4
2023-01-25T10:15:03.934Z,6.4
2023-01-25T10:20:40.385Z,6.5
2023-01-25T10:26:17.033Z,6.5
2023-01-25T10:31:55.085Z,6.6
2023-01-25T10:37:31.432Z,6.6
2023-01-25T10:43:06.510Z,6.6
2023-01-25T10:49:03.900Z,6.7
2023-01-25T10:54:36.927Z,6.7
2023-01-25T11:00:12.323Z,6.8
2023-01-25T11:05:47.734Z,6.8
2023-01-25T11:11:22.749Z,6.9
2023-01-25T11:16:58.108Z,6.9
2023-01-25T11:22:33.666Z,7
2023-01-25T11:28:08.804Z,7.1
2023-01-25T11:33:44.702Z,7.2
2023-01-25T11:39:20.397Z,7.2
2023-01-25T11:44:56.793Z,7.2
2023-01-25T11:50:33.044Z,7.3
2023-01-25T11:56:12.906Z,7.3
2023-01-25T12:01:48.157Z,7.3
2023-01-25T12:07:24.831Z,6.9
2023-01-25T12:13:01.805Z,6.1
2023-01-25T12:18:36.985Z,6.2
2023-01-25T12:24:12.500Z,6.3
2023-01-25T12:29:49.248Z,6.8
2023-01-25T12:35:24.950Z,6.7
2023-01-25T12:40:59.991Z,6.5
2023-01-25T12:46:36.375Z,6.4
2023-01-25T12:52:13.095Z,6.2
2023-01-25T12:57:49.292Z,6.1
2023-01-25T13:03:25.781Z,6.1
2023-01-25T13:09:00.703Z,6.1
2023-01-25T13:14:37.351Z,6.1
2023-01-25T13:20:14.332Z,6.1
2023-01-25T13:25:49.456Z,5.9
2023-01-25T13:31:31.363Z,6.2
2023-01-25T13:37:33.715Z,6.4
2023-01-25T13:43:09.183Z,6.3
2023-01-25T13:48:44.361Z,6.4
2023-01-25T13:54:19.543Z,6.5
2023-01-25T13:59:59.122Z,6.3
2023-01-25T14:05:49.863Z,5.9
2023-01-25T14:11:24.884Z,6.3
2023-01-25T14:17:00.192Z,6.3
2023-01-25T14:22:56.944Z,6.2
2023-01-25T14:28:32.258Z,6.4
2023-01-25T14:34:07.757Z,6.3
2023-01-25T14:39:42.908Z,6.3
2023-01-25T14:45:33.087Z,6.6
2023-01-25T14:51:09.150Z,6.3
2023-01-25T14:56:49.573Z,6.2
2023-01-25T15:02:25.306Z,6.4
2023-01-25T15:08:00.889Z,6.2
2023-01-25T15:13:36.077Z,6.3
2023-01-25T15:19:11.488Z,6.1
2023-01-25T15:24:58.355Z,6
2023-01-25T15:30:33.921Z,6
2023-01-25T15:36:11.950Z,5.9
2023-01-25T15:41:51.060Z,5.8
2023-01-25T15:47:26.549Z,5.8
2023-01-25T15:53:01.815Z,5.8
2023-01-25T15:58:40.662Z,5.9
2023-01-25T16:04:16.701Z,5.9
2023-01-25T16:09:52.120Z,5.8
2023-01-25T16:15:42.605Z,5.7
2023-01-25T16:21:17.591Z,5.3
2023-01-25T16:27:06.835Z,5.3
2023-01-25T16:32:42.535Z,5.2
2023-01-25T16:38:17.558Z,5.2
2023-01-25T16:43:53.150Z,5.2
2023-01-25T16:49:33.017Z,5.1
2023-01-25T16:55:08.656Z,5
2023-01-25T17:00:50.757Z,5.1
2023-01-25T17:06:25.633Z,5.1
2023-01-25T17:12:01.658Z,4.8
2023-01-25T17:17:36.972Z,4.6
2023-01-25T17:23:28.956Z,4.7
2023-01-25T17:29:18.197Z,4.6
2023-01-25T17:34:54.393Z,4.6
2023-01-25T17:40:47.280Z,4.4
2023-01-25T17:46:23.215Z,4.2
2023-01-25T17:51:58.825Z,4.3
2023-01-25T17:57:34.850Z,4.3
2023-01-25T18:03:10.006Z,4.1
2023-01-25T18:08:53.163Z,4.3
2023-01-25T18:14:54.780Z,4.3
2023-01-25T18:20:32.541Z,4.1
2023-01-25T18:26:07.980Z,4.3
2023-01-25T18:31:43.852Z,4.3
2023-01-25T18:37:22.043Z,4.3
2023-01-25T18:42:59.021Z,4.2
2023-01-25T18:48:37.524Z,4.3
2023-01-25T18:54:17.460Z,5.3
2023-01-25T18:59:55.006Z,5.7
2023-01-25T19:05:35.203Z,6
2023-01-25T19:11:16.441Z,6.1
2023-01-25T19:16:52.842Z,6.1
2023-01-25T19:22:29.016Z,6.2
2023-01-25T19:28:27.169Z,6.3
2023-01-25T19:34:20.360Z,6.3
2023-01-25T19:40:01.213Z,6.4
2023-01-25T19:45:36.479Z,6.5
2023-01-25T19:51:12.243Z,6.5
2023-01-25T19:57:17.255Z,6.5
2023-01-25T20:02:52.571Z,6.6
2023-01-25T20:10:33.392Z,6.6
2023-01-25T20:16:21.678Z,6.6
2023-01-25T20:22:00.172Z,6.6
2023-01-25T20:27:35.824Z,6.6
2023-01-25T20:33:20.027Z,6.6
2023-01-25T20:38:55.316Z,6.7
2023-01-25T20:44:31.754Z,6.7
2023-01-25T20:50:11.343Z,6.7
2023-01-25T20:55:46.790Z,6.7
2023-01-25T21:01:21.926Z,6.7
2023-01-25T21:07:02.380Z,6.7
2023-01-25T21:12:38.160Z,6.7
2023-01-25T21:18:38.818Z,6.7
2023-01-25T21:24:22.859Z,6.7
2023-01-25T21:30:33.925Z,6.7
2023-01-25T21:36:22.045Z,6.7
2023-01-25T21:42:02.875Z,6.7
2023-01-25T21:47:37.901Z,6.7
2023-01-25T21:53:14.332Z,6.7
2023-01-25T21:58:50.674Z,6.7
2023-01-25T22:04:43.697Z,6.7
2023-01-25T22:10:20.286Z,6.7
2023-01-25T22:15:57.710Z,6.7
2023-01-25T22:21:34.362Z,6.7
2023-01-25T22:27:31.316Z,6.7
2023-01-25T22:33:08.006Z,6.7
2023-01-25T22:39:54.681Z,6.7
2023-01-25T22:45:29.968Z,6.7
2023-01-25T22:51:04.694Z,6.7
2023-01-25T22:56:40.876Z,6.7
2023-01-25T23:02:16.572Z,6.7
2023-01-25T23:07:59.407Z,6.6
2023-01-25T23:13:34.304Z,6.6
2023-01-25T23:19:10.104Z,6.6
2023-01-25T23:24:45.524Z,6.6
2023-01-25T23:30:20.727Z,6.6
2023-01-25T23:35:55.830Z,6.6
2023-01-25T23:41:34.731Z,6.6
2023-01-25T23:47:13.649Z,6.6
2023-01-25T23:53:08.563Z,6.6
2023-01-25T23:58:51.077Z,6.5
